sensor_id;sensor_type;location;lat;lon;timestamp;P1;durP1;ratioP1;P2;durP2;ratioP2
55758;SDS011;41678;52.126;20.664;2022-08-03T00:04:51;17.77;;;10.85;;
55758;SDS011;41678;52.126;20.664;2022-08-03T00:10:11;17.63;;;11.07;;
55758;SDS011;41678;52.126;20.664;2022-08-03T00:15:32;23.33;;;12.45;;
55758;SDS011;41678;52.126;20.664;2022-08-03T00:20:52;17.50;;;12.13;;
55758;SDS011;41678;52.126;20.664;2022-08-03T00:26:12;16.45;;;11.07;;
55758;SDS011;41678;52.126;20.664;2022-08-03T00:31:31;17.38;;;11.40;;
55758;SDS011;41678;52.126;20.664;2022-08-03T00:36:51;16.10;;;10.73;;
55758;SDS011;41678;52.126;20.664;2022-08-03T00:42:12;15.80;;;11.45;;
55758;SDS011;41678;52.126;20.664;2022-08-03T00:47:31;18.35;;;10.73;;
55758;SDS011;41678;52.126;20.664;2022-08-03T00:52:52;16.23;;;10.82;;
55758;SDS011;41678;52.126;20.664;2022-08-03T00:58:14;15.93;;;10.80;;
55758;SDS011;41678;52.126;20.664;2022-08-03T01:03:33;16.02;;;10.55;;
55758;SDS011;41678;52.126;20.664;2022-08-03T01:14:41;16.15;;;11.30;;
55758;SDS011;41678;52.126;20.664;2022-08-03T01:20:12;19.50;;;11.18;;
55758;SDS011;41678;52.126;20.664;2022-08-03T01:30:58;16.65;;;10.38;;
55758;SDS011;41678;52.126;20.664;2022-08-03T01:36:25;15.75;;;10.60;;
55758;SDS011;41678;52.126;20.664;2022-08-03T01:41:52;16.52;;;10.02;;
55758;SDS011;41678;52.126;20.664;2022-08-03T01:47:20;16.75;;;11.07;;
55758;SDS011;41678;52.126;20.664;2022-08-03T01:52:41;14.37;;;10.23;;
55758;SDS011;41678;52.126;20.664;2022-08-03T01:58:03;14.80;;;9.90;;
55758;SDS011;41678;52.126;20.664;2022-08-03T02:03:24;18.35;;;10.13;;
55758;SDS011;41678;52.126;20.664;2022-08-03T02:08:45;14.75;;;10.07;;
55758;SDS011;41678;52.126;20.664;2022-08-03T02:14:07;15.25;;;10.20;;
55758;SDS011;41678;52.126;20.664;2022-08-03T02:19:28;15.57;;;9.40;;
55758;SDS011;41678;52.126;20.664;2022-08-03T02:24:51;12.45;;;8.65;;
55758;SDS011;41678;52.126;20.664;2022-08-03T02:30:11;17.08;;;9.65;;
55758;SDS011;41678;52.126;20.664;2022-08-03T02:35:31;13.60;;;9.75;;
55758;SDS011;41678;52.126;20.664;2022-08-03T02:40:54;12.30;;;9.45;;
55758;SDS011;41678;52.126;20.664;2022-08-03T02:46:16;13.02;;;10.10;;
55758;SDS011;41678;52.126;20.664;2022-08-03T02:51:38;17.15;;;10.07;;
55758;SDS011;41678;52.126;20.664;2022-08-03T02:56:59;18.77;;;9.85;;
55758;SDS011;41678;52.126;20.664;2022-08-03T03:02:20;12.50;;;9.32;;
55758;SDS011;41678;52.126;20.664;2022-08-03T03:07:40;17.02;;;10.68;;
55758;SDS011;41678;52.126;20.664;2022-08-03T03:13:01;17.55;;;9.43;;
55758;SDS011;41678;52.126;20.664;2022-08-03T03:18:21;17.85;;;9.90;;
55758;SDS011;41678;52.126;20.664;2022-08-03T03:23:43;13.35;;;9.35;;
55758;SDS011;41678;52.126;20.664;2022-08-03T03:29:05;16.73;;;9.50;;
55758;SDS011;41678;52.126;20.664;2022-08-03T03:34:26;12.97;;;9.37;;
55758;SDS011;41678;52.126;20.664;2022-08-03T03:39:47;17.98;;;10.60;;
55758;SDS011;41678;52.126;20.664;2022-08-03T03:45:07;13.68;;;9.48;;
55758;SDS011;41678;52.126;20.664;2022-08-03T03:50:28;15.93;;;10.35;;
55758;SDS011;41678;52.126;20.664;2022-08-03T03:55:51;14.60;;;9.75;;
55758;SDS011;41678;52.126;20.664;2022-08-03T04:01:12;14.95;;;10.32;;
55758;SDS011;41678;52.126;20.664;2022-08-03T04:06:32;16.40;;;10.35;;
55758;SDS011;41678;52.126;20.664;2022-08-03T04:12:10;22.83;;;10.85;;
55758;SDS011;41678;52.126;20.664;2022-08-03T04:17:31;20.58;;;9.98;;
55758;SDS011;41678;52.126;20.664;2022-08-03T04:22:51;18.50;;;9.98;;
55758;SDS011;41678;52.126;20.664;2022-08-03T04:28:12;15.93;;;10.80;;
55758;SDS011;41678;52.126;20.664;2022-08-03T04:33:34;19.53;;;10.83;;
55758;SDS011;41678;52.126;20.664;2022-08-03T04:44:20;23.00;;;12.05;;
55758;SDS011;41678;52.126;20.664;2022-08-03T04:49:42;20.35;;;11.05;;
55758;SDS011;41678;52.126;20.664;2022-08-03T04:55:02;19.92;;;11.48;;
55758;SDS011;41678;52.126;20.664;2022-08-03T05:00:23;21.53;;;11.70;;
55758;SDS011;41678;52.126;20.664;2022-08-03T05:05:43;17.52;;;11.68;;
55758;SDS011;41678;52.126;20.664;2022-08-03T05:11:03;21.27;;;12.90;;
55758;SDS011;41678;52.126;20.664;2022-08-03T05:16:22;26.08;;;12.15;;
55758;SDS011;41678;52.126;20.664;2022-08-03T05:21:43;19.67;;;11.95;;
55758;SDS011;41678;52.126;20.664;2022-08-03T05:27:03;17.92;;;12.43;;
55758;SDS011;41678;52.126;20.664;2022-08-03T05:32:23;24.88;;;15.07;;
55758;SDS011;41678;52.126;20.664;2022-08-03T05:37:43;20.67;;;12.95;;
55758;SDS011;41678;52.126;20.664;2022-08-03T05:43:03;20.00;;;11.73;;
55758;SDS011;41678;52.126;20.664;2022-08-03T05:48:23;19.75;;;11.95;;
55758;SDS011;41678;52.126;20.664;2022-08-03T05:53:43;19.73;;;12.48;;
55758;SDS011;41678;52.126;20.664;2022-08-03T05:59:03;25.27;;;12.23;;
55758;SDS011;41678;52.126;20.664;2022-08-03T06:04:23;23.95;;;13.82;;
55758;SDS011;41678;52.126;20.664;2022-08-03T06:09:42;22.35;;;14.40;;
55758;SDS011;41678;52.126;20.664;2022-08-03T06:15:03;25.13;;;14.52;;
55758;SDS011;41678;52.126;20.664;2022-08-03T06:20:23;19.65;;;11.82;;
55758;SDS011;41678;52.126;20.664;2022-08-03T06:25:43;20.05;;;11.55;;
55758;SDS011;41678;52.126;20.664;2022-08-03T06:31:03;20.90;;;11.70;;
55758;SDS011;41678;52.126;20.664;2022-08-03T06:36:23;18.65;;;11.50;;
55758;SDS011;41678;52.126;20.664;2022-08-03T06:41:44;16.60;;;10.27;;
55758;SDS011;41678;52.126;20.664;2022-08-03T19:08:44;14.23;;;7.57;;
55758;SDS011;41678;52.126;20.664;2022-08-03T19:14:07;12.25;;;7.05;;
55758;SDS011;41678;52.126;20.664;2022-08-03T19:19:29;15.80;;;8.25;;
55758;SDS011;41678;52.126;20.664;2022-08-03T19:24:49;17.67;;;7.80;;
55758;SDS011;41678;52.126;20.664;2022-08-03T19:30:13;16.65;;;8.10;;
55758;SDS011;41678;52.126;20.664;2022-08-03T19:35:53;19.73;;;9.27;;
55758;SDS011;41678;52.126;20.664;2022-08-03T19:41:13;13.57;;;8.48;;
55758;SDS011;41678;52.126;20.664;2022-08-03T19:47:09;14.45;;;8.77;;
55758;SDS011;41678;52.126;20.664;2022-08-03T19:52:29;19.73;;;9.38;;
55758;SDS011;41678;52.126;20.664;2022-08-03T19:57:54;16.67;;;8.73;;
55758;SDS011;41678;52.126;20.664;2022-08-03T20:09:02;16.77;;;8.70;;
55758;SDS011;41678;52.126;20.664;2022-08-03T20:14:22;18.55;;;8.60;;
55758;SDS011;41678;52.126;20.664;2022-08-03T20:19:42;19.05;;;9.25;;
55758;SDS011;41678;52.126;20.664;2022-08-03T20:25:05;20.63;;;8.25;;
55758;SDS011;41678;52.126;20.664;2022-08-03T20:30:26;18.35;;;8.20;;
55758;SDS011;41678;52.126;20.664;2022-08-03T20:35:46;15.95;;;8.77;;
55758;SDS011;41678;52.126;20.664;2022-08-03T20:41:07;19.27;;;8.63;;
55758;SDS011;41678;52.126;20.664;2022-08-03T20:46:27;19.77;;;8.73;;
55758;SDS011;41678;52.126;20.664;2022-08-03T20:51:47;25.08;;;9.18;;
55758;SDS011;41678;52.126;20.664;2022-08-03T20:57:08;23.48;;;10.80;;
55758;SDS011;41678;52.126;20.664;2022-08-03T21:02:28;16.17;;;9.67;;
55758;SDS011;41678;52.126;20.664;2022-08-03T21:07:52;19.45;;;8.85;;
55758;SDS011;41678;52.126;20.664;2022-08-03T21:13:22;16.98;;;9.13;;
55758;SDS011;41678;52.126;20.664;2022-08-03T21:18:50;15.48;;;8.75;;
55758;SDS011;41678;52.126;20.664;2022-08-03T21:24:12;14.27;;;8.70;;
55758;SDS011;41678;52.126;20.664;2022-08-03T21:29:32;14.90;;;9.68;;
55758;SDS011;41678;52.126;20.664;2022-08-03T21:34:56;15.32;;;9.50;;
55758;SDS011;41678;52.126;20.664;2022-08-03T21:40:16;16.25;;;9.63;;
55758;SDS011;41678;52.126;20.664;2022-08-03T21:45:59;16.45;;;9.60;;
55758;SDS011;41678;52.126;20.664;2022-08-03T21:51:17;14.73;;;9.15;;
55758;SDS011;41678;52.126;20.664;2022-08-03T21:56:42;14.55;;;9.18;;
55758;SDS011;41678;52.126;20.664;2022-08-03T22:02:05;17.80;;;9.68;;
55758;SDS011;41678;52.126;20.664;2022-08-03T22:07:27;17.05;;;9.18;;
55758;SDS011;41678;52.126;20.664;2022-08-03T22:12:47;20.77;;;9.63;;
55758;SDS011;41678;52.126;20.664;2022-08-03T22:18:07;14.32;;;9.10;;
55758;SDS011;41678;52.126;20.664;2022-08-03T22:23:39;15.13;;;9.02;;
55758;SDS011;41678;52.126;20.664;2022-08-03T22:29:04;11.60;;;8.32;;
55758;SDS011;41678;52.126;20.664;2022-08-03T22:34:26;14.13;;;9.77;;
55758;SDS011;41678;52.126;20.664;2022-08-03T22:39:47;12.55;;;8.40;;
55758;SDS011;41678;52.126;20.664;2022-08-03T22:45:08;11.32;;;7.88;;
55758;SDS011;41678;52.126;20.664;2022-08-03T22:50:28;13.23;;;8.18;;
55758;SDS011;41678;52.126;20.664;2022-08-03T22:55:48;13.10;;;7.53;;
55758;SDS011;41678;52.126;20.664;2022-08-03T23:01:10;11.20;;;7.35;;
55758;SDS011;41678;52.126;20.664;2022-08-03T23:06:36;15.43;;;7.35;;
55758;SDS011;41678;52.126;20.664;2022-08-03T23:11:59;18.58;;;7.03;;
55758;SDS011;41678;52.126;20.664;2022-08-03T23:17:20;12.93;;;6.47;;
55758;SDS011;41678;52.126;20.664;2022-08-03T23:22:41;8.85;;;5.57;;
55758;SDS011;41678;52.126;20.664;2022-08-03T23:28:02;11.80;;;5.80;;
55758;SDS011;41678;52.126;20.664;2022-08-03T23:33:22;11.77;;;5.83;;
55758;SDS011;41678;52.126;20.664;2022-08-03T23:38:43;14.25;;;5.70;;
55758;SDS011;41678;52.126;20.664;2022-08-03T23:44:04;9.50;;;4.90;;
55758;SDS011;41678;52.126;20.664;2022-08-03T23:49:25;9.68;;;4.30;;
55758;SDS011;41678;52.126;20.664;2022-08-03T23:54:49;10.38;;;4.57;;
